sensor_id;sensor_type;location;lat;lon;timestamp;P1;durP1;ratioP1;P2;durP2;ratioP2
40745;SDS011;26454;51.164;4.488;2023-07-02T00:01:32;30.77;;;18.67;;
40745;SDS011;26454;51.164;4.488;2023-07-02T00:03:58;34.97;;;17.90;;
40745;SDS011;26454;51.164;4.488;2023-07-02T00:06:24;31.70;;;17.15;;
40745;SDS011;26454;51.164;4.488;2023-07-02T00:08:50;30.98;;;17.58;;
40745;SDS011;26454;51.164;4.488;2023-07-02T00:11:16;34.13;;;18.38;;
40745;SDS011;26454;51.164;4.488;2023-07-02T00:13:42;33.47;;;18.60;;
40745;SDS011;26454;51.164;4.488;2023-07-02T00:16:08;35.60;;;18.55;;
40745;SDS011;26454;51.164;4.488;2023-07-02T00:18:34;36.63;;;18.88;;
40745;SDS011;26454;51.164;4.488;2023-07-02T00:21:00;36.67;;;18.55;;
40745;SDS011;26454;51.164;4.488;2023-07-02T00:23:29;32.58;;;19.27;;
40745;SDS011;26454;51.164;4.488;2023-07-02T00:25:56;38.50;;;19.63;;
40745;SDS011;26454;51.164;4.488;2023-07-02T00:28:22;34.15;;;18.92;;
40745;SDS011;26454;51.164;4.488;2023-07-02T00:30:48;64.00;;;21.98;;
40745;SDS011;26454;51.164;4.488;2023-07-02T00:33:15;36.85;;;19.27;;
40745;SDS011;26454;51.164;4.488;2023-07-02T00:35:41;34.00;;;18.83;;
40745;SDS011;26454;51.164;4.488;2023-07-02T00:38:07;33.80;;;19.77;;
40745;SDS011;26454;51.164;4.488;2023-07-02T00:40:33;38.22;;;19.02;;
40745;SDS011;26454;51.164;4.488;2023-07-02T00:42:59;38.03;;;19.88;;
40745;SDS011;26454;51.164;4.488;2023-07-02T00:45:25;37.30;;;20.10;;
40745;SDS011;26454;51.164;4.488;2023-07-02T00:47:53;35.58;;;20.20;;
40745;SDS011;26454;51.164;4.488;2023-07-02T00:50:20;38.72;;;19.95;;
40745;SDS011;26454;51.164;4.488;2023-07-02T00:52:46;40.25;;;21.67;;
40745;SDS011;26454;51.164;4.488;2023-07-02T00:55:12;42.63;;;20.10;;
40745;SDS011;26454;51.164;4.488;2023-07-02T00:57:38;39.75;;;21.05;;
40745;SDS011;26454;51.164;4.488;2023-07-02T01:00:06;40.33;;;21.63;;
40745;SDS011;26454;51.164;4.488;2023-07-02T01:02:32;34.67;;;23.02;;
40745;SDS011;26454;51.164;4.488;2023-07-02T01:04:58;41.15;;;21.55;;
40745;SDS011;26454;51.164;4.488;2023-07-02T01:07:25;43.45;;;22.50;;
40745;SDS011;26454;51.164;4.488;2023-07-02T01:09:51;37.20;;;21.20;;
40745;SDS011;26454;51.164;4.488;2023-07-02T01:12:18;39.78;;;20.98;;
40745;SDS011;26454;51.164;4.488;2023-07-02T01:14:48;39.67;;;19.83;;
40745;SDS011;26454;51.164;4.488;2023-07-02T01:17:14;35.38;;;20.40;;
40745;SDS011;26454;51.164;4.488;2023-07-02T01:19:48;35.22;;;21.00;;
40745;SDS011;26454;51.164;4.488;2023-07-02T01:22:17;36.22;;;20.98;;
40745;SDS011;26454;51.164;4.488;2023-07-02T01:24:43;63.90;;;25.55;;
40745;SDS011;26454;51.164;4.488;2023-07-02T01:27:09;39.72;;;21.85;;
40745;SDS011;26454;51.164;4.488;2023-07-02T01:29:35;38.50;;;21.25;;
40745;SDS011;26454;51.164;4.488;2023-07-02T01:32:01;35.60;;;20.75;;
40745;SDS011;26454;51.164;4.488;2023-07-02T01:34:27;38.95;;;23.50;;
40745;SDS011;26454;51.164;4.488;2023-07-02T01:36:53;42.28;;;22.77;;
40745;SDS011;26454;51.164;4.488;2023-07-02T01:39:19;44.78;;;22.67;;
40745;SDS011;26454;51.164;4.488;2023-07-02T01:41:49;41.58;;;22.75;;
40745;SDS011;26454;51.164;4.488;2023-07-02T01:44:16;46.13;;;22.27;;
40745;SDS011;26454;51.164;4.488;2023-07-02T01:46:42;33.90;;;21.67;;
40745;SDS011;26454;51.164;4.488;2023-07-02T01:49:08;43.50;;;24.20;;
40745;SDS011;26454;51.164;4.488;2023-07-02T01:51:34;44.65;;;22.88;;
40745;SDS011;26454;51.164;4.488;2023-07-02T01:54:00;50.42;;;23.25;;
40745;SDS011;26454;51.164;4.488;2023-07-02T01:56:26;41.45;;;22.65;;
40745;SDS011;26454;51.164;4.488;2023-07-02T01:58:53;42.95;;;22.65;;
40745;SDS011;26454;51.164;4.488;2023-07-02T02:01:19;39.53;;;22.52;;
40745;SDS011;26454;51.164;4.488;2023-07-02T02:03:45;44.05;;;23.52;;
40745;SDS011;26454;51.164;4.488;2023-07-02T02:06:11;40.85;;;22.20;;
40745;SDS011;26454;51.164;4.488;2023-07-02T02:08:37;38.78;;;23.73;;
40745;SDS011;26454;51.164;4.488;2023-07-02T02:11:03;41.63;;;23.25;;
40745;SDS011;26454;51.164;4.488;2023-07-02T02:13:29;46.15;;;23.77;;
40745;SDS011;26454;51.164;4.488;2023-07-02T02:15:55;48.03;;;25.25;;
40745;SDS011;26454;51.164;4.488;2023-07-02T02:18:21;37.63;;;22.05;;
40745;SDS011;26454;51.164;4.488;2023-07-02T02:20:47;47.30;;;24.17;;
40745;SDS011;26454;51.164;4.488;2023-07-02T02:23:13;50.97;;;24.73;;
40745;SDS011;26454;51.164;4.488;2023-07-02T02:25:39;42.60;;;23.33;;
40745;SDS011;26454;51.164;4.488;2023-07-02T02:28:05;41.35;;;22.77;;
40745;SDS011;26454;51.164;4.488;2023-07-02T02:30:31;51.97;;;25.90;;
40745;SDS011;26454;51.164;4.488;2023-07-02T02:32:57;46.55;;;24.42;;
40745;SDS011;26454;51.164;4.488;2023-07-02T02:35:23;40.35;;;24.58;;
40745;SDS011;26454;51.164;4.488;2023-07-02T02:37:49;43.58;;;24.45;;
40745;SDS011;26454;51.164;4.488;2023-07-02T02:40:15;42.50;;;24.60;;
40745;SDS011;26454;51.164;4.488;2023-07-02T02:42:41;44.97;;;22.00;;
40745;SDS011;26454;51.164;4.488;2023-07-02T02:45:07;45.42;;;24.95;;
40745;SDS011;26454;51.164;4.488;2023-07-02T02:47:33;46.05;;;23.60;;
40745;SDS011;26454;51.164;4.488;2023-07-02T02:49:59;48.55;;;25.38;;
40745;SDS011;26454;51.164;4.488;2023-07-02T02:52:25;46.30;;;25.48;;
40745;SDS011;26454;51.164;4.488;2023-07-02T02:54:51;50.53;;;26.10;;
40745;SDS011;26454;51.164;4.488;2023-07-02T02:57:18;49.30;;;24.35;;
40745;SDS011;26454;51.164;4.488;2023-07-02T02:59:44;42.80;;;24.65;;
40745;SDS011;26454;51.164;4.488;2023-07-02T03:02:11;41.47;;;25.05;;
40745;SDS011;26454;51.164;4.488;2023-07-02T03:04:37;44.88;;;25.35;;
40745;SDS011;26454;51.164;4.488;2023-07-02T03:07:06;49.42;;;25.48;;
40745;SDS011;26454;51.164;4.488;2023-07-02T03:09:32;49.75;;;25.50;;
40745;SDS011;26454;51.164;4.488;2023-07-02T03:11:59;45.55;;;25.20;;
40745;SDS011;26454;51.164;4.488;2023-07-02T03:14:25;45.03;;;25.42;;
40745;SDS011;26454;51.164;4.488;2023-07-02T03:16:51;43.20;;;24.52;;
40745;SDS011;26454;51.164;4.488;2023-07-02T03:19:17;55.67;;;26.73;;
40745;SDS011;26454;51.164;4.488;2023-07-02T03:21:43;44.42;;;27.13;;
40745;SDS011;26454;51.164;4.488;2023-07-02T03:24:09;52.13;;;26.63;;
40745;SDS011;26454;51.164;4.488;2023-07-02T03:26:39;49.78;;;27.42;;
40745;SDS011;26454;51.164;4.488;2023-07-02T03:29:05;52.30;;;26.08;;
40745;SDS011;26454;51.164;4.488;2023-07-02T03:31:31;56.35;;;27.27;;
40745;SDS011;26454;51.164;4.488;2023-07-02T03:33:57;50.00;;;25.90;;
40745;SDS011;26454;51.164;4.488;2023-07-02T03:36:23;46.42;;;27.48;;
40745;SDS011;26454;51.164;4.488;2023-07-02T03:38:49;41.70;;;25.10;;
40745;SDS011;26454;51.164;4.488;2023-07-02T03:41:15;43.05;;;25.60;;
40745;SDS011;26454;51.164;4.488;2023-07-02T03:43:41;55.65;;;27.30;;
40745;SDS011;26454;51.164;4.488;2023-07-02T03:46:07;57.28;;;31.40;;
40745;SDS011;26454;51.164;4.488;2023-07-02T03:48:33;49.45;;;27.02;;
40745;SDS011;26454;51.164;4.488;2023-07-02T03:51:00;47.15;;;26.40;;
40745;SDS011;26454;51.164;4.488;2023-07-02T03:53:27;51.97;;;26.05;;
40745;SDS011;26454;51.164;4.488;2023-07-02T03:55:53;50.53;;;26.77;;
40745;SDS011;26454;51.164;4.488;2023-07-02T03:58:19;48.05;;;27.95;;
40745;SDS011;26454;51.164;4.488;2023-07-02T04:00:45;49.25;;;26.38;;
40745;SDS011;26454;51.164;4.488;2023-07-02T04:03:14;48.67;;;27.00;;
40745;SDS011;26454;51.164;4.488;2023-07-02T04:05:41;48.20;;;27.58;;
40745;SDS011;26454;51.164;4.488;2023-07-02T04:08:07;51.13;;;27.80;;
40745;SDS011;26454;51.164;4.488;2023-07-02T04:10:33;57.15;;;27.35;;
40745;SDS011;26454;51.164;4.488;2023-07-02T04:12:59;53.45;;;28.45;;
40745;SDS011;26454;51.164;4.488;2023-07-02T04:15:25;50.10;;;27.17;;
40745;SDS011;26454;51.164;4.488;2023-07-02T04:17:51;51.95;;;26.83;;
40745;SDS011;26454;51.164;4.488;2023-07-02T04:20:18;49.78;;;28.55;;
40745;SDS011;26454;51.164;4.488;2023-07-02T04:22:44;57.55;;;29.42;;
40745;SDS011;26454;51.164;4.488;2023-07-02T04:25:11;58.08;;;28.10;;
40745;SDS011;26454;51.164;4.488;2023-07-02T04:27:40;54.80;;;27.40;;
40745;SDS011;26454;51.164;4.488;2023-07-02T04:30:06;49.38;;;28.05;;
40745;SDS011;26454;51.164;4.488;2023-07-02T04:32:33;51.90;;;26.67;;
40745;SDS011;26454;51.164;4.488;2023-07-02T04:34:59;52.70;;;28.98;;
40745;SDS011;26454;51.164;4.488;2023-07-02T04:37:25;49.40;;;27.42;;
40745;SDS011;26454;51.164;4.488;2023-07-02T04:39:52;50.50;;;27.08;;
40745;SDS011;26454;51.164;4.488;2023-07-02T04:42:18;50.60;;;28.13;;
40745;SDS011;26454;51.164;4.488;2023-07-02T04:44:44;51.90;;;27.23;;
40745;SDS011;26454;51.164;4.488;2023-07-02T04:47:13;51.78;;;28.85;;
40745;SDS011;26454;51.164;4.488;2023-07-02T04:49:39;49.20;;;25.90;;
40745;SDS011;26454;51.164;4.488;2023-07-02T04:52:05;49.28;;;29.17;;
40745;SDS011;26454;51.164;4.488;2023-07-02T04:54:31;52.97;;;27.80;;
40745;SDS011;26454;51.164;4.488;2023-07-02T04:56:57;47.90;;;27.35;;
40745;SDS011;26454;51.164;4.488;2023-07-02T04:59:24;47.25;;;27.55;;
40745;SDS011;26454;51.164;4.488;2023-07-02T05:01:50;52.10;;;27.80;;
40745;SDS011;26454;51.164;4.488;2023-07-02T05:04:17;49.45;;;26.42;;
40745;SDS011;26454;51.164;4.488;2023-07-02T05:06:43;49.83;;;25.95;;
40745;SDS011;26454;51.164;4.488;2023-07-02T05:09:09;55.40;;;27.38;;
40745;SDS011;26454;51.164;4.488;2023-07-02T05:11:35;54.00;;;27.73;;
40745;SDS011;26454;51.164;4.488;2023-07-02T05:14:01;49.15;;;28.60;;
40745;SDS011;26454;51.164;4.488;2023-07-02T05:16:27;46.67;;;26.27;;
40745;SDS011;26454;51.164;4.488;2023-07-02T05:18:53;56.90;;;29.17;;
40745;SDS011;26454;51.164;4.488;2023-07-02T05:21:19;58.97;;;28.70;;
40745;SDS011;26454;51.164;4.488;2023-07-02T05:23:45;52.72;;;26.05;;
40745;SDS011;26454;51.164;4.488;2023-07-02T05:26:11;52.17;;;29.13;;
40745;SDS011;26454;51.164;4.488;2023-07-02T05:28:37;52.95;;;27.90;;
40745;SDS011;26454;51.164;4.488;2023-07-02T05:31:03;41.45;;;25.60;;
40745;SDS011;26454;51.164;4.488;2023-07-02T05:33:29;47.67;;;27.15;;
40745;SDS011;26454;51.164;4.488;2023-07-02T05:35:57;44.80;;;26.42;;
40745;SDS011;26454;51.164;4.488;2023-07-02T05:38:23;42.95;;;25.63;;
40745;SDS011;26454;51.164;4.488;2023-07-02T05:40:49;47.75;;;26.15;;
40745;SDS011;26454;51.164;4.488;2023-07-02T05:43:15;52.40;;;27.20;;
40745;SDS011;26454;51.164;4.488;2023-07-02T05:45:41;48.50;;;26.10;;
40745;SDS011;26454;51.164;4.488;2023-07-02T05:48:08;54.60;;;27.52;;
40745;SDS011;26454;51.164;4.488;2023-07-02T05:50:34;50.38;;;28.13;;
40745;SDS011;26454;51.164;4.488;2023-07-02T05:52:59;49.30;;;27.05;;
40745;SDS011;26454;51.164;4.488;2023-07-02T05:55:26;54.50;;;27.17;;
40745;SDS011;26454;51.164;4.488;2023-07-02T05:57:52;59.15;;;27.52;;
40745;SDS011;26454;51.164;4.488;2023-07-02T06:00:18;55.10;;;25.73;;
40745;SDS011;26454;51.164;4.488;2023-07-02T06:02:45;49.17;;;25.98;;
40745;SDS011;26454;51.164;4.488;2023-07-02T06:05:12;50.53;;;26.08;;
40745;SDS011;26454;51.164;4.488;2023-07-02T06:07:38;41.63;;;24.27;;
40745;SDS011;26454;51.164;4.488;2023-07-02T06:10:05;42.28;;;24.20;;
40745;SDS011;26454;51.164;4.488;2023-07-02T06:12:31;41.78;;;23.23;;
40745;SDS011;26454;51.164;4.488;2023-07-02T06:14:57;44.25;;;22.67;;
40745;SDS011;26454;51.164;4.488;2023-07-02T06:17:23;47.08;;;24.52;;
40745;SDS011;26454;51.164;4.488;2023-07-02T06:19:50;38.33;;;23.48;;
40745;SDS011;26454;51.164;4.488;2023-07-02T06:22:16;45.83;;;24.45;;
40745;SDS011;26454;51.164;4.488;2023-07-02T06:24:42;48.70;;;22.42;;
40745;SDS011;26454;51.164;4.488;2023-07-02T06:27:08;41.78;;;21.98;;
40745;SDS011;26454;51.164;4.488;2023-07-02T06:29:34;41.53;;;22.05;;
40745;SDS011;26454;51.164;4.488;2023-07-02T06:32:00;34.92;;;19.02;;
40745;SDS011;26454;51.164;4.488;2023-07-02T06:34:26;33.10;;;18.95;;
40745;SDS011;26454;51.164;4.488;2023-07-02T06:36:52;33.85;;;20.70;;
40745;SDS011;26454;51.164;4.488;2023-07-02T06:39:17;33.85;;;19.73;;
40745;SDS011;26454;51.164;4.488;2023-07-02T06:41:44;31.30;;;19.02;;
40745;SDS011;26454;51.164;4.488;2023-07-02T06:44:09;37.97;;;19.02;;
40745;SDS011;26454;51.164;4.488;2023-07-02T06:46:35;35.67;;;19.63;;
40745;SDS011;26454;51.164;4.488;2023-07-02T06:49:01;38.67;;;20.17;;
40745;SDS011;26454;51.164;4.488;2023-07-02T06:51:28;33.20;;;16.58;;
40745;SDS011;26454;51.164;4.488;2023-07-02T06:53:54;29.92;;;16.63;;
40745;SDS011;26454;51.164;4.488;2023-07-02T06:56:20;30.98;;;16.90;;
40745;SDS011;26454;51.164;4.488;2023-07-02T06:58:46;28.75;;;14.90;;
40745;SDS011;26454;51.164;4.488;2023-07-02T07:01:12;29.77;;;14.85;;
40745;SDS011;26454;51.164;4.488;2023-07-02T07:03:38;29.98;;;14.80;;
40745;SDS011;26454;51.164;4.488;2023-07-02T07:06:04;31.70;;;16.25;;
40745;SDS011;26454;51.164;4.488;2023-07-02T07:08:30;29.40;;;14.15;;
40745;SDS011;26454;51.164;4.488;2023-07-02T07:10:56;30.80;;;13.20;;
40745;SDS011;26454;51.164;4.488;2023-07-02T07:13:22;22.08;;;11.30;;
40745;SDS011;26454;51.164;4.488;2023-07-02T07:15:48;20.13;;;11.63;;
40745;SDS011;26454;51.164;4.488;2023-07-02T07:18:14;27.60;;;11.82;;
40745;SDS011;26454;51.164;4.488;2023-07-02T07:20:41;19.98;;;10.23;;
40745;SDS011;26454;51.164;4.488;2023-07-02T07:23:07;18.33;;;9.65;;
40745;SDS011;26454;51.164;4.488;2023-07-02T07:25:34;15.98;;;8.32;;
40745;SDS011;26454;51.164;4.488;2023-07-02T07:28:00;16.88;;;9.32;;
40745;SDS011;26454;51.164;4.488;2023-07-02T07:30:27;17.55;;;8.82;;
40745;SDS011;26454;51.164;4.488;2023-07-02T07:32:53;19.55;;;8.23;;
40745;SDS011;26454;51.164;4.488;2023-07-02T07:35:20;16.02;;;8.68;;
40745;SDS011;26454;51.164;4.488;2023-07-02T07:37:46;25.85;;;8.48;;
40745;SDS011;26454;51.164;4.488;2023-07-02T07:40:13;23.67;;;9.30;;
40745;SDS011;26454;51.164;4.488;2023-07-02T07:42:39;17.15;;;8.98;;
40745;SDS011;26454;51.164;4.488;2023-07-02T07:45:05;16.50;;;8.70;;
40745;SDS011;26454;51.164;4.488;2023-07-02T07:47:31;19.92;;;9.32;;
40745;SDS011;26454;51.164;4.488;2023-07-02T07:49:57;19.05;;;8.55;;
40745;SDS011;26454;51.164;4.488;2023-07-02T07:52:23;18.05;;;8.70;;
40745;SDS011;26454;51.164;4.488;2023-07-02T07:54:49;19.10;;;8.07;;
40745;SDS011;26454;51.164;4.488;2023-07-02T07:57:15;18.75;;;9.45;;
40745;SDS011;26454;51.164;4.488;2023-07-02T07:59:41;21.63;;;8.95;;
40745;SDS011;26454;51.164;4.488;2023-07-02T08:02:07;18.67;;;8.68;;
40745;SDS011;26454;51.164;4.488;2023-07-02T08:04:34;20.70;;;8.63;;
40745;SDS011;26454;51.164;4.488;2023-07-02T08:07:00;19.90;;;8.38;;
40745;SDS011;26454;51.164;4.488;2023-07-02T08:09:29;21.25;;;8.45;;
40745;SDS011;26454;51.164;4.488;2023-07-02T08:11:55;16.83;;;7.32;;
40745;SDS011;26454;51.164;4.488;2023-07-02T08:14:21;14.23;;;7.03;;
40745;SDS011;26454;51.164;4.488;2023-07-02T08:16:47;16.50;;;6.90;;
40745;SDS011;26454;51.164;4.488;2023-07-02T08:19:13;14.88;;;7.40;;
40745;SDS011;26454;51.164;4.488;2023-07-02T08:21:39;16.02;;;8.00;;
40745;SDS011;26454;51.164;4.488;2023-07-02T08:24:05;14.30;;;7.18;;
40745;SDS011;26454;51.164;4.488;2023-07-02T08:26:31;15.80;;;7.40;;
40745;SDS011;26454;51.164;4.488;2023-07-02T08:28:57;14.57;;;7.93;;
40745;SDS011;26454;51.164;4.488;2023-07-02T08:31:23;14.35;;;7.45;;
40745;SDS011;26454;51.164;4.488;2023-07-02T08:33:49;13.20;;;6.28;;
40745;SDS011;26454;51.164;4.488;2023-07-02T08:36:15;16.48;;;8.07;;
40745;SDS011;26454;51.164;4.488;2023-07-02T08:38:41;17.33;;;7.38;;
40745;SDS011;26454;51.164;4.488;2023-07-02T08:41:08;16.13;;;7.88;;
40745;SDS011;26454;51.164;4.488;2023-07-02T08:43:34;17.92;;;7.05;;
40745;SDS011;26454;51.164;4.488;2023-07-02T08:46:01;16.77;;;8.50;;
40745;SDS011;26454;51.164;4.488;2023-07-02T08:48:28;13.38;;;6.43;;
40745;SDS011;26454;51.164;4.488;2023-07-02T08:50:55;12.20;;;6.15;;
40745;SDS011;26454;51.164;4.488;2023-07-02T08:53:22;13.85;;;7.10;;
40745;SDS011;26454;51.164;4.488;2023-07-02T08:55:54;19.98;;;7.70;;
40745;SDS011;26454;51.164;4.488;2023-07-02T08:58:21;12.45;;;6.28;;
40745;SDS011;26454;51.164;4.488;2023-07-02T09:03:22;13.70;;;6.40;;
40745;SDS011;26454;51.164;4.488;2023-07-02T09:05:51;20.45;;;7.72;;
40745;SDS011;26454;51.164;4.488;2023-07-02T09:08:24;20.38;;;7.07;;
40745;SDS011;26454;51.164;4.488;2023-07-02T09:10:51;15.20;;;6.55;;
40745;SDS011;26454;51.164;4.488;2023-07-02T09:13:17;19.42;;;7.95;;
40745;SDS011;26454;51.164;4.488;2023-07-02T09:15:43;14.88;;;7.32;;
40745;SDS011;26454;51.164;4.488;2023-07-02T09:18:16;19.15;;;8.57;;
40745;SDS011;26454;51.164;4.488;2023-07-02T09:20:42;15.90;;;7.63;;
40745;SDS011;26454;51.164;4.488;2023-07-02T09:23:08;17.10;;;7.50;;
40745;SDS011;26454;51.164;4.488;2023-07-02T09:25:38;14.60;;;7.20;;
40745;SDS011;26454;51.164;4.488;2023-07-02T09:30:30;18.92;;;8.50;;
40745;SDS011;26454;51.164;4.488;2023-07-02T09:33:05;18.10;;;7.90;;
40745;SDS011;26454;51.164;4.488;2023-07-02T09:35:31;13.07;;;7.78;;
40745;SDS011;26454;51.164;4.488;2023-07-02T09:37:57;18.58;;;9.27;;
40745;SDS011;26454;51.164;4.488;2023-07-02T09:40:24;14.98;;;7.80;;
40745;SDS011;26454;51.164;4.488;2023-07-02T09:42:55;18.08;;;8.02;;
40745;SDS011;26454;51.164;4.488;2023-07-02T09:45:21;26.00;;;10.93;;
40745;SDS011;26454;51.164;4.488;2023-07-02T09:47:47;22.10;;;9.55;;
40745;SDS011;26454;51.164;4.488;2023-07-02T09:50:15;20.27;;;10.25;;
40745;SDS011;26454;51.164;4.488;2023-07-02T09:52:44;28.30;;;12.95;;
40745;SDS011;26454;51.164;4.488;2023-07-02T09:55:11;21.05;;;11.27;;
40745;SDS011;26454;51.164;4.488;2023-07-02T09:57:37;23.10;;;10.63;;
40745;SDS011;26454;51.164;4.488;2023-07-02T10:00:04;20.70;;;11.18;;
40745;SDS011;26454;51.164;4.488;2023-07-02T10:02:32;20.73;;;12.38;;
40745;SDS011;26454;51.164;4.488;2023-07-02T10:04:58;21.55;;;11.15;;
40745;SDS011;26454;51.164;4.488;2023-07-02T10:07:26;21.75;;;11.23;;
40745;SDS011;26454;51.164;4.488;2023-07-02T10:09:52;21.38;;;10.90;;
40745;SDS011;26454;51.164;4.488;2023-07-02T10:12:20;23.67;;;12.57;;
40745;SDS011;26454;51.164;4.488;2023-07-02T10:14:47;25.73;;;11.77;;
40745;SDS011;26454;51.164;4.488;2023-07-02T10:19:53;24.23;;;11.88;;
40745;SDS011;26454;51.164;4.488;2023-07-02T10:22:19;25.20;;;11.00;;
40745;SDS011;26454;51.164;4.488;2023-07-02T10:24:53;20.83;;;10.90;;
40745;SDS011;26454;51.164;4.488;2023-07-02T10:27:19;22.45;;;10.50;;
40745;SDS011;26454;51.164;4.488;2023-07-02T10:29:49;24.42;;;10.65;;
40745;SDS011;26454;51.164;4.488;2023-07-02T10:32:25;21.77;;;10.43;;
40745;SDS011;26454;51.164;4.488;2023-07-02T10:34:53;20.30;;;11.35;;
40745;SDS011;26454;51.164;4.488;2023-07-02T10:37:19;21.02;;;10.63;;
40745;SDS011;26454;51.164;4.488;2023-07-02T10:39:45;18.30;;;10.48;;
40745;SDS011;26454;51.164;4.488;2023-07-02T10:42:11;21.20;;;10.90;;
40745;SDS011;26454;51.164;4.488;2023-07-02T10:47:13;25.17;;;10.65;;
40745;SDS011;26454;51.164;4.488;2023-07-02T10:49:39;17.83;;;10.15;;
40745;SDS011;26454;51.164;4.488;2023-07-02T10:52:05;16.75;;;9.23;;
40745;SDS011;26454;51.164;4.488;2023-07-02T10:54:40;20.85;;;10.02;;
40745;SDS011;26454;51.164;4.488;2023-07-02T10:57:07;19.15;;;8.57;;
40745;SDS011;26454;51.164;4.488;2023-07-02T10:59:33;18.92;;;7.47;;
40745;SDS011;26454;51.164;4.488;2023-07-02T11:01:59;17.13;;;8.48;;
40745;SDS011;26454;51.164;4.488;2023-07-02T11:04:28;16.65;;;8.23;;
40745;SDS011;26454;51.164;4.488;2023-07-02T11:06:54;17.65;;;8.20;;
40745;SDS011;26454;51.164;4.488;2023-07-02T11:09:20;14.80;;;7.50;;
40745;SDS011;26454;51.164;4.488;2023-07-02T11:11:49;15.85;;;9.02;;
40745;SDS011;26454;51.164;4.488;2023-07-02T11:14:25;19.67;;;8.15;;
40745;SDS011;26454;51.164;4.488;2023-07-02T11:16:53;14.52;;;7.65;;
40745;SDS011;26454;51.164;4.488;2023-07-02T11:19:20;19.55;;;8.45;;
40745;SDS011;26454;51.164;4.488;2023-07-02T11:21:51;14.90;;;8.20;;
40745;SDS011;26454;51.164;4.488;2023-07-02T11:24:26;16.50;;;7.53;;
40745;SDS011;26454;51.164;4.488;2023-07-02T11:26:52;15.32;;;7.80;;
40745;SDS011;26454;51.164;4.488;2023-07-02T11:29:18;13.82;;;7.53;;
40745;SDS011;26454;51.164;4.488;2023-07-02T11:31:44;12.85;;;6.45;;
40745;SDS011;26454;51.164;4.488;2023-07-02T11:34:11;21.90;;;8.55;;
40745;SDS011;26454;51.164;4.488;2023-07-02T11:36:37;16.08;;;6.60;;
40745;SDS011;26454;51.164;4.488;2023-07-02T11:39:03;14.30;;;6.65;;
40745;SDS011;26454;51.164;4.488;2023-07-02T11:44:06;12.23;;;6.57;;
40745;SDS011;26454;51.164;4.488;2023-07-02T11:46:32;12.68;;;6.85;;
40745;SDS011;26454;51.164;4.488;2023-07-02T11:49:00;12.32;;;6.93;;
40745;SDS011;26454;51.164;4.488;2023-07-02T11:51:27;15.50;;;7.15;;
40745;SDS011;26454;51.164;4.488;2023-07-02T11:53:53;14.30;;;7.25;;
40745;SDS011;26454;51.164;4.488;2023-07-02T11:56:19;14.57;;;6.88;;
40745;SDS011;26454;51.164;4.488;2023-07-02T11:58:45;20.95;;;7.07;;
40745;SDS011;26454;51.164;4.488;2023-07-02T12:01:11;12.95;;;6.72;;
40745;SDS011;26454;51.164;4.488;2023-07-02T12:03:37;16.17;;;7.32;;
40745;SDS011;26454;51.164;4.488;2023-07-02T12:06:03;12.13;;;6.60;;
40745;SDS011;26454;51.164;4.488;2023-07-02T12:08:30;13.82;;;6.40;;
40745;SDS011;26454;51.164;4.488;2023-07-02T12:10:56;14.50;;;6.80;;
40745;SDS011;26454;51.164;4.488;2023-07-02T12:13:22;12.70;;;6.05;;
40745;SDS011;26454;51.164;4.488;2023-07-02T12:15:48;17.75;;;6.82;;
40745;SDS011;26454;51.164;4.488;2023-07-02T12:18:16;19.27;;;8.68;;
40745;SDS011;26454;51.164;4.488;2023-07-02T12:20:42;15.95;;;6.50;;
40745;SDS011;26454;51.164;4.488;2023-07-02T12:23:08;17.23;;;7.25;;
40745;SDS011;26454;51.164;4.488;2023-07-02T12:25:36;9.70;;;6.03;;
40745;SDS011;26454;51.164;4.488;2023-07-02T12:28:03;12.85;;;7.07;;
40745;SDS011;26454;51.164;4.488;2023-07-02T12:30:30;12.23;;;6.43;;
40745;SDS011;26454;51.164;4.488;2023-07-02T12:32:56;13.93;;;6.03;;
40745;SDS011;26454;51.164;4.488;2023-07-02T12:35:22;13.32;;;6.65;;
40745;SDS011;26454;51.164;4.488;2023-07-02T12:37:49;12.68;;;6.10;;
40745;SDS011;26454;51.164;4.488;2023-07-02T12:40:16;14.95;;;7.18;;
40745;SDS011;26454;51.164;4.488;2023-07-02T12:42:43;12.73;;;6.40;;
40745;SDS011;26454;51.164;4.488;2023-07-02T12:45:09;13.30;;;7.03;;
40745;SDS011;26454;51.164;4.488;2023-07-02T12:47:36;14.93;;;7.15;;
40745;SDS011;26454;51.164;4.488;2023-07-02T12:50:02;13.20;;;6.28;;
40745;SDS011;26454;51.164;4.488;2023-07-02T12:52:29;14.20;;;6.90;;
40745;SDS011;26454;51.164;4.488;2023-07-02T12:54:55;16.40;;;7.45;;
40745;SDS011;26454;51.164;4.488;2023-07-02T12:57:21;14.57;;;5.65;;
40745;SDS011;26454;51.164;4.488;2023-07-02T12:59:47;14.05;;;7.10;;
40745;SDS011;26454;51.164;4.488;2023-07-02T13:02:13;14.23;;;6.70;;
40745;SDS011;26454;51.164;4.488;2023-07-02T13:04:39;11.48;;;6.18;;
40745;SDS011;26454;51.164;4.488;2023-07-02T13:07:05;13.95;;;6.82;;
40745;SDS011;26454;51.164;4.488;2023-07-02T13:09:32;16.40;;;7.60;;
40745;SDS011;26454;51.164;4.488;2023-07-02T13:11:58;12.13;;;6.65;;
40745;SDS011;26454;51.164;4.488;2023-07-02T13:14:24;13.20;;;6.32;;
40745;SDS011;26454;51.164;4.488;2023-07-02T13:16:50;12.98;;;6.97;;
40745;SDS011;26454;51.164;4.488;2023-07-02T13:19:16;13.68;;;7.28;;
40745;SDS011;26454;51.164;4.488;2023-07-02T13:21:42;13.52;;;6.55;;
40745;SDS011;26454;51.164;4.488;2023-07-02T13:24:08;15.80;;;7.88;;
40745;SDS011;26454;51.164;4.488;2023-07-02T13:26:34;16.35;;;6.80;;
40745;SDS011;26454;51.164;4.488;2023-07-02T13:29:00;13.38;;;7.72;;
40745;SDS011;26454;51.164;4.488;2023-07-02T13:31:26;14.95;;;6.60;;
40745;SDS011;26454;51.164;4.488;2023-07-02T13:33:52;13.02;;;7.55;;
40745;SDS011;26454;51.164;4.488;2023-07-02T13:36:18;13.88;;;7.47;;
40745;SDS011;26454;51.164;4.488;2023-07-02T13:38:44;20.10;;;7.90;;
40745;SDS011;26454;51.164;4.488;2023-07-02T13:41:10;11.35;;;7.28;;
40745;SDS011;26454;51.164;4.488;2023-07-02T13:43:36;17.17;;;7.53;;
40745;SDS011;26454;51.164;4.488;2023-07-02T13:46:02;15.77;;;7.30;;
40745;SDS011;26454;51.164;4.488;2023-07-02T13:48:28;15.40;;;8.90;;
40745;SDS011;26454;51.164;4.488;2023-07-02T13:50:54;15.15;;;8.35;;
40745;SDS011;26454;51.164;4.488;2023-07-02T13:53:20;12.15;;;7.28;;
40745;SDS011;26454;51.164;4.488;2023-07-02T13:55:46;15.25;;;8.25;;
40745;SDS011;26454;51.164;4.488;2023-07-02T13:58:12;13.60;;;6.82;;
40745;SDS011;26454;51.164;4.488;2023-07-02T14:00:38;15.07;;;8.38;;
40745;SDS011;26454;51.164;4.488;2023-07-02T14:03:04;15.30;;;7.45;;
40745;SDS011;26454;51.164;4.488;2023-07-02T14:05:31;16.05;;;7.72;;
40745;SDS011;26454;51.164;4.488;2023-07-02T14:07:57;13.38;;;8.90;;
40745;SDS011;26454;51.164;4.488;2023-07-02T14:10:23;17.15;;;8.00;;
40745;SDS011;26454;51.164;4.488;2023-07-02T14:12:49;15.50;;;7.57;;
40745;SDS011;26454;51.164;4.488;2023-07-02T14:15:15;13.75;;;7.00;;
40745;SDS011;26454;51.164;4.488;2023-07-02T14:17:41;15.57;;;8.18;;
40745;SDS011;26454;51.164;4.488;2023-07-02T14:20:07;14.98;;;7.22;;
40745;SDS011;26454;51.164;4.488;2023-07-02T14:22:34;15.77;;;7.38;;
40745;SDS011;26454;51.164;4.488;2023-07-02T14:25:00;12.57;;;7.80;;
40745;SDS011;26454;51.164;4.488;2023-07-02T14:27:26;14.32;;;7.78;;
40745;SDS011;26454;51.164;4.488;2023-07-02T14:29:52;18.27;;;8.75;;
40745;SDS011;26454;51.164;4.488;2023-07-02T14:32:18;12.43;;;7.10;;
40745;SDS011;26454;51.164;4.488;2023-07-02T14:34:44;13.30;;;7.50;;